Eastern Sierra Regional Airport
KBIH : now visible

Airfield :











YOU CAN JOIN US ON...

 
LOGIN :

Register | Disclaimer

   EN    FR    IT 

 









Legend :    VFR   Marginal VFR   IFR   Intensive IFR   Very Intensive IFR
Visi :
Ceiling :
>= 8 km
>= 3000ft
5 to 8 km
1000 to 3000 ft
1500m to 5 km
500 to 1000 ft
800 to 1500m
200 to 500 ft
< 800m
< 200 ft
Symbols :   Thunderstorms  Fog  Heavy snow  Heavy precipitations  Wind > 20 kt






- Airport Elevation : 4124 ft


KBIH - Eastern Sierra Regional

CURRENT METAR :
  • 072056Z AUTO 19012G20KT 10SM CLR 36/M02 A2995 RMK AO2 SLP083 T03561022 56018

EXPIRED METARs :
  • 071956Z AUTO 14011G17KT 10SM CLR 34/M02 A2996 RMK AO2 SLP089 T03391017
  • 071856Z AUTO 16008KT 10SM CLR 32/00 A2998 RMK AO2 SLP093 T03220000

TAF KBIH
Valid from the 07 at 18:00 until the 08 at 18:00 UTC


071729Z 0718/0818 VRB05KT P6SM SKC
FM072100 16013G23KT P6SM SKC
FM080300 15010KT P6SM SKC
FM080900 VRB05KT P6SM SKC
KZOA FIR / North America



MET'MAP, your aeronautical weather chart ! - Copyright ORBIFLY December 2007 - Disclaimer

ORBIFLY MET'MAP TEAM :

Programming & Development : Alexandra Zaïnal
Concept & original design : Baudouin d'Aumeries
Assistance for programming : Marc-Olivier Méhu
Technical & hardware support : Manuel Goepfert

Contact : metmap@orbifly.com




SOURCES & CREDITS :

   NOAA       Earth
Advisory